createdAt,value
2019-05-25T00:01:00.777Z,101188.83
2019-05-25T00:03:28.991Z,101178.86
2019-05-25T00:05:57.214Z,101181.91
2019-05-25T00:08:25.424Z,101186.91
2019-05-25T00:10:53.665Z,101184.13
2019-05-25T00:13:21.875Z,101187.21
2019-05-25T00:15:50.095Z,101189.42
2019-05-25T00:18:18.352Z,101187.48
2019-05-25T00:20:46.560Z,101184.98
2019-05-25T00:23:14.803Z,101189.69
2019-05-25T00:25:43.039Z,101189.13
2019-05-25T00:28:11.281Z,101187.75
2019-05-25T00:30:39.495Z,101193.33
2019-05-25T00:33:07.737Z,101187.49
2019-05-25T00:35:35.975Z,101193.33
2019-05-25T00:38:04.198Z,101186.11
2019-05-25T00:40:32.420Z,101187.77
2019-05-25T00:43:00.652Z,101183.33
2019-05-25T00:45:28.870Z,101183.03
2019-05-25T00:47:57.095Z,101184.42
2019-05-25T00:50:25.316Z,101186.63
2019-05-25T00:52:53.549Z,101186.91
2019-05-25T00:55:21.764Z,101190.23
2019-05-25T00:57:50.357Z,101195.53
2019-05-25T01:00:18.582Z,101203.02
2019-05-25T01:02:46.819Z,101200.49
2019-05-25T01:05:15.132Z,101208.55
2019-05-25T01:07:43.353Z,101201.61
2019-05-25T01:10:12.242Z,101201.86
2019-05-25T01:12:40.440Z,101211.27
2019-05-25T01:15:08.649Z,101212.05
2019-05-25T01:17:36.889Z,101210.67
2019-05-25T01:20:07.874Z,101211.21
2019-05-25T01:22:36.197Z,101211.21
2019-05-25T01:25:05.387Z,101210.09
2019-05-25T01:27:33.630Z,101204.84
2019-05-25T01:30:01.848Z,101212.63
2019-05-25T01:32:30.065Z,101213.69
2019-05-25T01:34:58.319Z,101212.55
2019-05-25T01:37:26.528Z,101212.81
2019-05-25T01:39:54.852Z,101215.30
2019-05-25T01:42:23.080Z,101208.08
2019-05-25T01:44:51.356Z,101198.38
2019-05-25T01:47:19.581Z,101208.91
2019-05-25T01:49:47.883Z,101211.14
2019-05-25T01:52:16.111Z,101208.91
2019-05-25T01:54:58.902Z,101204.20
2019-05-25T01:57:14.329Z,101203.37
2019-05-25T01:59:42.523Z,101209.20
2019-05-25T02:02:10.762Z,101212.52
2019-05-25T02:04:38.991Z,101207.81
2019-05-25T02:07:07.250Z,101214.99
2019-05-25T02:09:35.488Z,101211.95
2019-05-25T02:12:03.701Z,101211.67
2019-05-25T02:14:31.928Z,101209.75
2019-05-25T02:17:00.152Z,101207.52
2019-05-25T02:19:28.370Z,101210.83
2019-05-25T02:21:56.611Z,101209.45
2019-05-25T02:24:24.840Z,101216.94
2019-05-25T02:26:53.073Z,101209.98
2019-05-25T02:29:21.308Z,101209.70
2019-05-25T02:31:49.564Z,101212.75
2019-05-25T02:34:17.865Z,101206.66
2019-05-25T02:36:46.121Z,101208.31
2019-05-25T02:39:14.368Z,101211.39
2019-05-25T02:41:42.588Z,101204.45
2019-05-25T02:44:10.789Z,101204.45
2019-05-25T02:46:39.049Z,101206.92
2019-05-25T02:49:07.270Z,101212.75
2019-05-25T02:51:35.567Z,101213.30
2019-05-25T02:54:03.844Z,101215.78
2019-05-25T02:56:32.081Z,101216.33
2019-05-25T02:59:00.329Z,101219.10
2019-05-25T03:01:28.548Z,101222.12
2019-05-25T03:03:56.784Z,101226.58
2019-05-25T03:06:24.999Z,101219.10
2019-05-25T03:08:53.407Z,101220.19
2019-05-25T03:11:21.631Z,101224.35
2019-05-25T03:13:49.875Z,101226.28
2019-05-25T03:16:18.178Z,101224.35
2019-05-25T03:18:46.515Z,101232.12
2019-05-25T03:21:14.782Z,101229.36
2019-05-25T03:23:43.003Z,101228.23
2019-05-25T03:26:11.238Z,101221.33
2019-05-25T03:28:39.457Z,101227.72
2019-05-25T03:31:07.692Z,101225.22
2019-05-25T03:33:35.909Z,101223.27
2019-05-25T03:36:04.214Z,101236.83
2019-05-25T03:38:32.411Z,101236.83
2019-05-25T03:41:00.687Z,101231.28
2019-05-25T03:43:28.906Z,101232.95
2019-05-25T03:45:57.156Z,101240.72
2019-05-25T03:48:25.370Z,101236.56
2019-05-25T03:50:53.599Z,101242.11
2019-05-25T03:53:21.862Z,101245.16
2019-05-25T03:56:04.673Z,101249.61
2019-05-25T03:58:20.027Z,101247.92
2019-05-25T04:00:48.258Z,101244.61
2019-05-25T04:03:16.505Z,101243.22
2019-05-25T04:05:44.764Z,101245.72
2019-05-25T04:08:12.993Z,101246.02
2019-05-25T04:10:41.251Z,101244.05
2019-05-25T04:13:09.462Z,101240.74
2019-05-25T04:15:37.712Z,101250.73
2019-05-25T04:18:05.945Z,101244.67
2019-05-25T04:20:34.256Z,101252.45
2019-05-25T04:23:02.463Z,101253.55
2019-05-25T04:25:30.702Z,101255.80
2019-05-25T04:27:59.018Z,101256.88
2019-05-25T04:30:27.229Z,101249.68
2019-05-25T04:32:55.431Z,101254.41
2019-05-25T04:35:23.646Z,101253.59
2019-05-25T04:37:51.875Z,101256.66
2019-05-25T04:40:22.988Z,101257.80
2019-05-25T04:42:50.053Z,101257.80
2019-05-25T04:45:18.301Z,101269.73
2019-05-25T04:47:46.513Z,101266.41
2019-05-25T04:50:14.757Z,101269.76
2019-05-25T04:52:42.964Z,101271.98
2019-05-25T04:55:11.196Z,101267.30
2019-05-25T04:57:39.413Z,101265.93
2019-05-25T05:00:08.441Z,101265.38
2019-05-25T05:02:36.654Z,101268.47
2019-05-25T05:05:05.684Z,101270.72
2019-05-25T05:07:33.907Z,101269.62
2019-05-25T05:10:03.394Z,101265.22
2019-05-25T05:12:31.735Z,101271.08
2019-05-25T05:14:59.968Z,101275.27
2019-05-25T05:17:28.176Z,101274.98
2019-05-25T05:19:56.393Z,101274.69
2019-05-25T05:22:24.699Z,101274.70
2019-05-25T05:24:52.871Z,101275.79
2019-05-25T05:27:21.142Z,101277.46
2019-05-25T05:29:49.382Z,101276.11
2019-05-25T05:32:27.181Z,101280.05
2019-05-25T05:34:47.542Z,101282.34
2019-05-25T05:37:15.757Z,101288.75
2019-05-25T05:39:44.036Z,101287.92
2019-05-25T05:42:14.674Z,101292.67
2019-05-25T05:44:42.899Z,101293.50
2019-05-25T05:47:13.154Z,101291.84
2019-05-25T05:49:41.404Z,101287.70
2019-05-25T05:52:09.642Z,101292.72
2019-05-25T05:54:37.906Z,101290.48
2019-05-25T05:57:12.326Z,101288.83
2019-05-25T05:59:36.179Z,101295.20
2019-05-25T06:02:04.411Z,101293.83
2019-05-25T06:04:32.632Z,101301.62
2019-05-25T06:07:00.934Z,101293.59
2019-05-25T06:09:29.102Z,101299.14
2019-05-25T06:11:57.365Z,101305.02
2019-05-25T06:14:25.651Z,101305.59
2019-05-25T06:16:54.075Z,101308.97
2019-05-25T06:19:22.350Z,101311.17
2019-05-25T06:21:50.768Z,101310.89
2019-05-25T06:24:19.612Z,101309.52
2019-05-25T06:26:47.825Z,101310.87
2019-05-25T06:29:16.029Z,101322.50
2019-05-25T06:31:44.260Z,101315.57
2019-05-25T06:34:12.496Z,101324.22
2019-05-25T06:36:40.720Z,101325.34
2019-05-25T06:39:08.980Z,101325.36
2019-05-25T06:41:37.194Z,101323.12
2019-05-25T06:44:05.684Z,101326.18
2019-05-25T06:46:33.899Z,101331.16
2019-05-25T06:49:02.158Z,101332.83
2019-05-25T06:51:30.350Z,101336.73
2019-05-25T06:53:58.570Z,101340.89
2019-05-25T06:56:26.798Z,101331.44
2019-05-25T06:58:55.010Z,101332.02
2019-05-25T07:01:23.254Z,101330.36
2019-05-25T07:03:51.593Z,101332.89
2019-05-25T07:06:20.006Z,101339.59
2019-05-25T07:08:48.231Z,101331.83
2019-05-25T07:11:16.444Z,101327.10
2019-05-25T07:13:44.657Z,101338.55
2019-05-25T07:16:12.886Z,101333.52
2019-05-25T07:18:41.101Z,101333.52
2019-05-25T07:21:09.314Z,101338.54
2019-05-25T07:23:37.623Z,101343.53
2019-05-25T07:26:05.820Z,101339.09
2019-05-25T07:28:34.044Z,101339.38
2019-05-25T07:31:02.339Z,101337.70
2019-05-25T07:33:30.560Z,101335.16
2019-05-25T07:35:58.810Z,101341.58
2019-05-25T07:38:27.010Z,101345.45
2019-05-25T07:40:55.220Z,101342.70
2019-05-25T07:43:23.438Z,101344.64
2019-05-25T07:45:51.677Z,101349.92
2019-05-25T07:48:19.907Z,101346.59
2019-05-25T07:50:48.116Z,101350.75
2019-05-25T07:53:16.405Z,101352.44
2019-05-25T07:55:44.602Z,101351.02
2019-05-25T07:58:17.482Z,101357.69
2019-05-25T08:00:42.797Z,101352.13
2019-05-25T08:03:11.005Z,101368.78
2019-05-25T08:05:39.233Z,101358.73
2019-05-25T08:08:07.462Z,101366.25
2019-05-25T08:10:35.646Z,101362.29
2019-05-25T08:13:03.868Z,101363.95
2019-05-25T08:15:32.075Z,101365.75
2019-05-25T08:18:00.394Z,101365.83
2019-05-25T08:20:28.594Z,101361.97
2019-05-25T08:22:56.812Z,101363.66
2019-05-25T08:25:25.099Z,101364.79
2019-05-25T08:27:53.319Z,101364.98
2019-05-25T08:30:21.823Z,101369.64
2019-05-25T08:32:50.044Z,101369.39
2019-05-25T08:35:18.261Z,101380.05
2019-05-25T08:37:46.507Z,101378.05
2019-05-25T08:40:14.811Z,101379.36
2019-05-25T08:42:42.977Z,101383.70
2019-05-25T08:45:11.226Z,101384.58
2019-05-25T08:47:39.515Z,101395.44
2019-05-25T08:50:08.198Z,101392.64
2019-05-25T08:52:36.766Z,101393.12
2019-05-25T08:55:06.717Z,101396.67
2019-05-25T08:57:34.937Z,101395.45
2019-05-25T09:00:04.350Z,101397.57
2019-05-25T09:02:32.662Z,101400.84
2019-05-25T09:05:00.909Z,101398.70
2019-05-25T09:07:29.283Z,101404.48
2019-05-25T09:09:57.518Z,101399.86
2019-05-25T09:12:25.736Z,101408.25
2019-05-25T09:14:54.004Z,101410.18
2019-05-25T09:17:22.190Z,101408.78
2019-05-25T09:19:52.177Z,101409.96
2019-05-25T09:22:20.410Z,101413.89
2019-05-25T09:24:48.628Z,101412.56
2019-05-25T09:27:16.859Z,101417.84
2019-05-25T09:29:45.092Z,101420.08
2019-05-25T09:32:13.611Z,101421.71
2019-05-25T09:34:41.800Z,101264.37
2019-05-25T09:37:10.108Z,101413.36
2019-05-25T09:39:38.303Z,101416.28
2019-05-25T09:42:06.526Z,101421.39
2019-05-25T09:44:34.740Z,101420.92
2019-05-25T09:47:02.951Z,101425.77
2019-05-25T09:49:31.185Z,101427.75
2019-05-25T09:51:59.385Z,101446.77
2019-05-25T09:54:27.591Z,101436.16
2019-05-25T09:56:55.840Z,101427.54
2019-05-25T09:59:24.045Z,101432.23
2019-05-25T10:01:52.270Z,101424.13
2019-05-25T10:04:20.475Z,101422.12
2019-05-25T10:06:48.731Z,101428.39
2019-05-25T10:09:16.956Z,101414.53
2019-05-25T10:11:45.171Z,101423.28
2019-05-25T10:14:13.412Z,101415.96
2019-05-25T10:16:41.665Z,101420.73
2019-05-25T10:19:09.903Z,101422.08
2019-05-25T10:21:38.139Z,101424.02
2019-05-25T10:24:06.374Z,101424.45
2019-05-25T10:26:34.604Z,101424.88
2019-05-25T10:29:02.822Z,101415.74
2019-05-25T10:31:31.033Z,101421.02
2019-05-25T10:33:59.385Z,101422.63
2019-05-25T10:36:27.592Z,101420.84
2019-05-25T10:38:55.830Z,101419.87
2019-05-25T10:41:26.750Z,101416.70
2019-05-25T10:43:54.972Z,101420.41
2019-05-25T10:46:23.226Z,101429.90
2019-05-25T10:48:51.418Z,101419.41
2019-05-25T10:51:19.743Z,101420.64
2019-05-25T10:53:47.954Z,101419.57
2019-05-25T10:56:16.157Z,101421.97
2019-05-25T10:58:44.410Z,101425.17
2019-05-25T11:01:12.667Z,101415.20
2019-05-25T11:03:40.872Z,101419.39
2019-05-25T11:06:09.094Z,101421.31
2019-05-25T11:08:37.324Z,101416.97
2019-05-25T11:11:05.580Z,101426.22
2019-05-25T11:13:33.800Z,101430.05
2019-05-25T11:16:02.038Z,101437.46
2019-05-25T11:18:30.254Z,101440.95
2019-05-25T11:20:58.842Z,101435.72
2019-05-25T11:23:27.083Z,101431.24
2019-05-25T11:25:55.301Z,101439.56
2019-05-25T11:28:23.509Z,101427.22
2019-05-25T11:30:51.747Z,101428.53
2019-05-25T11:33:19.962Z,101431.80
2019-05-25T11:35:48.235Z,101432.84
2019-05-25T11:38:16.397Z,101438.55
2019-05-25T11:40:44.702Z,101430.28
2019-05-25T11:43:12.983Z,101430.06
2019-05-25T11:45:41.182Z,101430.27
2019-05-25T11:48:09.388Z,101422.83
2019-05-25T11:50:37.612Z,101431.33
2019-05-25T11:53:06.185Z,101422.98
2019-05-25T11:55:34.555Z,101427.20
2019-05-25T11:58:02.786Z,101418.88
2019-05-25T12:00:31.453Z,101426.55
2019-05-25T12:02:59.681Z,101427.69
2019-05-25T12:05:27.906Z,101420.13
2019-05-25T12:07:56.145Z,101429.52
2019-05-25T12:10:26.045Z,101424.41
2019-05-25T12:12:54.306Z,101421.45
2019-05-25T12:15:22.496Z,101423.44
2019-05-25T12:17:50.722Z,101425.97
2019-05-25T12:20:19.137Z,101424.23
2019-05-25T12:22:47.343Z,101419.66
2019-05-25T12:25:15.540Z,101417.02
2019-05-25T12:27:43.760Z,101428.22
2019-05-25T12:30:13.786Z,101418.52
2019-05-25T12:32:42.006Z,101411.48
2019-05-25T12:35:10.221Z,101409.20
2019-05-25T12:37:38.458Z,101416.89
2019-05-25T12:40:07.042Z,101411.68
2019-05-25T12:42:35.271Z,101419.77
2019-05-25T12:45:03.975Z,101417.84
2019-05-25T12:47:32.205Z,101415.06
2019-05-25T12:50:00.382Z,101419.84
2019-05-25T12:52:28.598Z,101411.45
2019-05-25T12:54:58.447Z,101416.19
2019-05-25T12:57:26.659Z,101423.41
2019-05-25T12:59:54.921Z,101425.33
2019-05-25T13:02:23.117Z,101427.05
2019-05-25T13:04:51.322Z,101273.58
2019-05-25T13:07:19.678Z,101428.47
2019-05-25T13:09:47.899Z,101430.80
2019-05-25T13:12:16.225Z,101427.31
2019-05-25T13:14:44.442Z,101439.82
2019-05-25T13:17:12.669Z,101440.15
2019-05-25T13:19:40.885Z,101438.94
2019-05-25T13:22:09.358Z,101443.88
2019-05-25T13:24:37.699Z,101437.98
2019-05-25T13:27:05.889Z,101444.55
2019-05-25T13:29:34.222Z,101444.97
2019-05-25T13:32:02.442Z,101445.96
2019-05-25T13:34:31.122Z,101452.52
2019-05-25T13:37:01.735Z,101454.27
2019-05-25T13:39:29.307Z,101456.55
2019-05-25T13:41:57.533Z,101458.31
2019-05-25T13:44:26.281Z,101466.73
2019-05-25T13:46:55.300Z,101461.92
2019-05-25T13:49:23.501Z,101466.78
2019-05-25T13:51:51.759Z,101465.75
2019-05-25T13:54:19.953Z,101461.87
2019-05-25T13:56:48.290Z,101464.66
2019-05-25T13:59:16.511Z,101467.98
2019-05-25T14:01:44.760Z,101461.80
2019-05-25T14:04:13.003Z,101457.23
2019-05-25T14:06:41.238Z,101464.67
2019-05-25T14:09:09.454Z,101467.06
2019-05-25T14:11:37.661Z,101463.05
2019-05-25T14:14:06.046Z,101463.27
2019-05-25T14:16:34.290Z,101455.95
2019-05-25T14:19:02.552Z,101460.19
2019-05-25T14:21:30.786Z,101468.43
2019-05-25T14:23:58.938Z,101463.87
2019-05-25T14:26:27.209Z,101472.36
2019-05-25T14:28:55.531Z,101470.50
2019-05-25T14:31:25.357Z,101470.90
2019-05-25T14:33:53.734Z,101467.64
2019-05-25T14:36:22.466Z,101467.64
2019-05-25T14:38:50.764Z,101465.17
2019-05-25T14:41:18.976Z,101465.44
2019-05-25T14:43:47.183Z,101471.01
2019-05-25T14:46:27.407Z,101470.20
2019-05-25T14:48:45.363Z,101468.25
2019-05-25T14:51:13.592Z,101465.17
2019-05-25T14:53:41.791Z,101470.75
2019-05-25T14:56:10.005Z,101471.30
2019-05-25T14:58:38.647Z,101464.62
2019-05-25T15:01:06.973Z,101465.46
2019-05-25T15:03:35.198Z,101468.80
2019-05-25T15:06:03.415Z,101467.69
2019-05-25T15:08:31.647Z,101463.80
2019-05-25T15:10:59.847Z,101466.88
2019-05-25T15:13:28.072Z,101471.04
2019-05-25T15:15:56.279Z,101470.48
2019-05-25T15:18:24.516Z,101462.42
2019-05-25T15:20:52.714Z,101468.56
2019-05-25T15:23:21.255Z,101465.80
2019-05-25T15:25:49.473Z,101462.16
2019-05-25T15:28:17.676Z,101459.09
2019-05-25T15:30:46.027Z,101455.76
2019-05-25T15:33:14.265Z,101458.81
2019-05-25T15:35:42.556Z,101466.62
2019-05-25T15:38:10.866Z,101462.97
2019-05-25T15:40:39.256Z,101456.84
2019-05-25T15:43:07.504Z,101460.48
2019-05-25T15:45:35.826Z,101457.13
2019-05-25T15:48:04.142Z,101460.47
2019-05-25T15:50:32.353Z,101456.55
2019-05-25T15:53:00.570Z,101459.06
2019-05-25T15:55:28.783Z,101459.07
2019-05-25T15:57:57.003Z,101449.58
2019-05-25T16:00:34.248Z,101450.39
2019-05-25T16:03:02.481Z,101448.41
2019-05-25T16:05:30.767Z,101448.62
2019-05-25T16:07:59.002Z,101444.09
2019-05-25T16:10:27.213Z,101445.74
2019-05-25T16:12:55.431Z,101458.34
2019-05-25T16:15:27.624Z,101450.27
2019-05-25T16:17:55.813Z,101457.00
2019-05-25T16:20:24.036Z,101466.25
2019-05-25T16:22:52.254Z,101458.20
2019-05-25T16:25:20.451Z,101465.17
2019-05-25T16:27:48.664Z,101468.80
2019-05-25T16:30:16.926Z,101462.94
2019-05-25T16:33:10.935Z,101460.12
2019-05-25T16:35:15.164Z,101457.08
2019-05-25T16:37:43.666Z,101460.45
2019-05-25T16:40:12.072Z,101455.13
2019-05-25T16:42:40.309Z,101452.34
2019-05-25T16:45:09.862Z,101453.19
2019-05-25T16:47:38.091Z,101451.76
2019-05-25T16:50:07.938Z,101450.95
2019-05-25T16:52:36.157Z,101450.13
2019-05-25T16:55:06.221Z,101454.88
2019-05-25T16:57:34.440Z,101456.00
2019-05-25T17:00:02.752Z,101450.44
2019-05-25T17:02:30.961Z,101449.61
2019-05-25T17:04:59.209Z,101448.50
2019-05-25T17:07:27.432Z,101450.17
2019-05-25T17:09:55.671Z,101450.17
2019-05-25T17:12:23.919Z,101446.58
2019-05-25T17:14:52.155Z,101446.84
2019-05-25T17:17:21.484Z,101437.38
2019-05-25T17:19:49.688Z,101454.36
2019-05-25T17:22:17.907Z,101437.36
2019-05-25T17:24:46.142Z,101443.78
2019-05-25T17:27:14.352Z,101435.43
2019-05-25T17:29:42.653Z,101436.81
2019-05-25T17:32:10.849Z,101430.39
2019-05-25T17:34:39.065Z,101433.19
2019-05-25T17:37:07.302Z,101431.53
2019-05-25T17:39:35.503Z,101436.23
2019-05-25T17:42:04.157Z,101424.30
2019-05-25T17:44:32.382Z,101428.17
2019-05-25T17:47:00.628Z,101428.73
2019-05-25T17:49:28.830Z,101434.02
2019-05-25T17:51:57.127Z,101430.13
2019-05-25T17:54:25.360Z,101431.48
2019-05-25T17:56:53.545Z,101435.41
2019-05-25T17:59:21.815Z,101430.94
2019-05-25T18:01:50.033Z,101429.54
2019-05-25T18:04:18.247Z,101435.09
2019-05-25T18:06:46.466Z,101425.62
2019-05-25T18:09:14.694Z,101438.14
2019-05-25T18:11:42.912Z,101437.57
2019-05-25T18:14:11.123Z,101450.63
2019-05-25T18:16:39.383Z,101441.14
2019-05-25T18:19:07.660Z,101442.53
2019-05-25T18:21:35.865Z,101441.67
2019-05-25T18:24:04.255Z,101443.89
2019-05-25T18:26:32.608Z,101444.98
2019-05-25T18:29:00.889Z,101444.98
2019-05-25T18:31:29.101Z,101447.73
2019-05-25T18:33:57.358Z,101444.91
2019-05-25T18:36:25.570Z,101446.01
2019-05-25T18:38:53.790Z,101447.66
2019-05-25T18:41:22.002Z,101451.55
2019-05-25T18:43:50.229Z,101447.34
2019-05-25T18:46:18.427Z,101449.53
2019-05-25T18:48:46.632Z,101440.89
2019-05-25T18:51:14.865Z,101439.50
2019-05-25T18:53:43.064Z,101440.32
2019-05-25T18:56:11.302Z,101435.30
2019-05-25T18:58:39.519Z,101438.86
2019-05-25T19:01:07.739Z,101438.27
2019-05-25T19:03:35.962Z,101441.52
2019-05-25T19:06:04.163Z,101447.52
2019-05-25T19:08:32.480Z,101450.20
2019-05-25T19:11:00.714Z,101445.70
2019-05-25T19:13:28.945Z,101446.42
2019-05-25T19:15:57.165Z,101453.88
2019-05-25T19:18:25.381Z,101455.08
2019-05-25T19:20:53.602Z,101454.64
2019-05-25T19:23:21.863Z,101455.53
2019-05-25T19:25:50.075Z,101455.02
2019-05-25T19:28:18.341Z,101467.31
2019-05-25T19:30:46.517Z,101463.22
2019-05-25T19:33:14.734Z,101465.16
2019-05-25T19:35:42.955Z,101464.48
2019-05-25T19:38:11.240Z,101458.31
2019-05-25T19:40:39.474Z,101466.02
2019-05-25T19:43:07.704Z,101460.95
2019-05-25T19:45:35.928Z,101468.39
2019-05-25T19:48:04.200Z,101468.94
2019-05-25T19:50:32.531Z,101470.56
2019-05-25T19:53:00.803Z,101468.88
2019-05-25T19:55:29.045Z,101456.92
2019-05-25T19:57:57.283Z,101461.94
2019-05-25T20:00:25.495Z,101466.10
2019-05-25T20:02:53.807Z,101465.25
2019-05-25T20:05:22.160Z,101462.75
2019-05-25T20:07:50.381Z,101466.07
2019-05-25T20:10:18.582Z,101462.48
2019-05-25T20:12:46.800Z,101464.69
2019-05-25T20:15:15.108Z,101469.09
2019-05-25T20:17:43.325Z,101464.92
2019-05-25T20:20:11.550Z,101470.17
2019-05-25T20:22:39.754Z,101462.36
2019-05-25T20:25:07.969Z,101461.79
2019-05-25T20:27:36.196Z,101460.41
2019-05-25T20:30:08.730Z,101459.55
2019-05-25T20:32:37.003Z,101457.87
2019-05-25T20:35:06.093Z,101451.47
2019-05-25T20:37:34.315Z,101455.91
2019-05-25T20:40:02.597Z,101442.00
2019-05-25T20:42:30.826Z,101450.87
2019-05-25T20:44:59.036Z,101447.82
2019-05-25T20:47:27.246Z,101453.61
2019-05-25T20:49:55.456Z,101453.00
2019-05-25T20:52:23.742Z,101452.94
2019-05-25T20:54:51.946Z,101450.91
2019-05-25T20:57:20.191Z,101445.52
2019-05-25T20:59:48.400Z,101442.37
2019-05-25T21:02:16.626Z,101443.95
2019-05-25T21:04:44.848Z,101449.92
2019-05-25T21:07:13.057Z,101440.14
2019-05-25T21:09:41.266Z,101441.41
2019-05-25T21:12:09.506Z,101442.44
2019-05-25T21:14:37.711Z,101435.16
2019-05-25T21:17:05.940Z,101437.58
2019-05-25T21:19:34.151Z,101444.11
2019-05-25T21:22:02.357Z,101441.83
2019-05-25T21:24:30.594Z,101440.67
2019-05-25T21:26:58.801Z,101445.89
2019-05-25T21:29:27.011Z,101438.88
2019-05-25T21:31:55.240Z,101437.22
2019-05-25T21:34:23.519Z,101428.60
2019-05-25T21:36:51.713Z,101424.98
2019-05-25T21:39:19.945Z,101427.17
2019-05-25T21:41:48.252Z,101419.94
2019-05-25T21:44:16.419Z,101419.94
2019-05-25T21:46:44.673Z,101426.05
2019-05-25T21:49:12.902Z,101418.64
2019-05-25T21:51:41.123Z,101423.06
2019-05-25T21:54:09.341Z,101431.95
2019-05-25T21:56:37.584Z,101419.80
2019-05-25T21:59:05.829Z,101420.03
2019-05-25T22:01:34.055Z,101421.09
2019-05-25T22:04:02.267Z,101418.55
2019-05-25T22:06:30.469Z,101420.46
2019-05-25T22:08:58.718Z,101414.62
2019-05-25T22:11:26.922Z,101414.03
2019-05-25T22:13:55.171Z,101412.33
2019-05-25T22:16:23.423Z,101410.91
2019-05-25T22:18:51.685Z,101403.67
2019-05-25T22:21:19.912Z,101399.29
2019-05-25T22:23:48.149Z,101404.26
2019-05-25T22:26:16.360Z,101408.40
2019-05-25T22:28:46.963Z,101408.35
2019-05-25T22:31:15.225Z,101401.11
2019-05-25T22:33:43.449Z,101399.69
2019-05-25T22:36:11.678Z,101397.98
2019-05-25T22:38:39.899Z,101396.50
2019-05-25T22:41:08.142Z,101392.31
2019-05-25T22:43:36.342Z,101386.19
2019-05-25T22:46:04.591Z,101387.25
2019-05-25T22:48:32.810Z,101386.36
2019-05-25T22:51:00.999Z,101378.32
2019-05-25T22:53:29.256Z,101392.16
2019-05-25T22:55:57.470Z,101381.89
2019-05-25T22:58:25.688Z,101379.33
2019-05-25T23:00:53.946Z,101372.69
2019-05-25T23:03:22.155Z,101377.62
2019-05-25T23:05:50.387Z,101370.94
2019-05-25T23:08:18.648Z,101372.05
2019-05-25T23:10:46.868Z,101373.70
2019-05-25T23:13:15.313Z,101373.13
2019-05-25T23:15:43.526Z,101380.61
2019-05-25T23:18:11.839Z,101373.11
2019-05-25T23:20:40.073Z,101377.80
2019-05-25T23:23:08.357Z,101372.22
2019-05-25T23:25:36.621Z,101371.42
2019-05-25T23:28:04.884Z,101371.42
2019-05-25T23:30:33.095Z,101365.89
2019-05-25T23:33:01.346Z,101357.05
2019-05-25T23:35:29.542Z,101359.81
2019-05-25T23:37:57.771Z,101361.45
2019-05-25T23:40:25.984Z,101355.87
2019-05-25T23:42:54.234Z,101346.20
2019-05-25T23:45:22.455Z,101353.34
2019-05-25T23:47:50.867Z,101342.27
2019-05-25T23:50:19.067Z,101343.06
2019-05-25T23:52:47.297Z,101344.44
2019-05-25T23:55:15.498Z,101333.08
2019-05-25T23:57:43.758Z,101330.03
